createdAt,value
2019-01-20T00:03:48.829Z,21.00
2019-01-20T00:08:56.564Z,24.23
2019-01-20T00:14:17.406Z,22.67
2019-01-20T00:19:20.160Z,37.30
2019-01-20T00:24:41.388Z,26.90
2019-01-20T00:30:04.033Z,25.40
2019-01-20T00:35:25.091Z,23.63
2019-01-20T00:40:27.908Z,24.03
2019-01-20T00:45:31.631Z,25.23
2019-01-20T00:50:52.631Z,33.70
2019-01-20T00:56:06.620Z,16.83
2019-01-20T01:01:13.499Z,25.17
2019-01-20T01:06:19.381Z,30.83
2019-01-20T01:11:33.201Z,24.93
2019-01-20T01:16:39.352Z,28.37
2019-01-20T01:21:42.963Z,30.60
2019-01-20T01:27:04.047Z,30.77
2019-01-20T01:32:07.971Z,24.57
2019-01-20T01:37:11.797Z,23.43
2019-01-20T01:42:16.295Z,21.40
2019-01-20T01:47:19.817Z,22.63
2019-01-20T01:52:27.010Z,23.27
2019-01-20T01:57:48.206Z,22.70
2019-01-20T02:02:55.855Z,25.87
2019-01-20T02:08:17.115Z,17.03
2019-01-20T02:13:31.510Z,24.57
2019-01-20T02:18:34.373Z,22.40
2019-01-20T02:23:42.560Z,14.43
2019-01-20T02:28:46.794Z,15.93
2019-01-20T02:33:51.608Z,25.07
2019-01-20T02:38:54.398Z,25.60
2019-01-20T02:44:15.302Z,17.50
2019-01-20T02:49:18.172Z,17.57
2019-01-20T02:54:23.189Z,10.00
2019-01-20T02:59:29.451Z,1.47
2019-01-20T03:04:32.740Z,9.63
2019-01-20T03:09:38.983Z,6.83
2019-01-20T03:14:41.859Z,27.03
2019-01-20T03:19:45.720Z,25.07
2019-01-20T03:24:48.489Z,18.33
2019-01-20T03:29:51.618Z,19.33
2019-01-20T03:34:55.830Z,2.43
2019-01-20T03:40:06.352Z,5.50
2019-01-20T03:45:15.431Z,3.03
2019-01-20T03:50:18.633Z,2.20
2019-01-20T03:55:21.419Z,4.87
2019-01-20T04:00:25.697Z,6.90
2019-01-20T04:05:32.863Z,16.10
2019-01-20T04:10:40.499Z,13.33
2019-01-20T04:15:53.666Z,3.97
2019-01-20T04:20:56.453Z,7.70
2019-01-20T04:26:05.173Z,12.37
2019-01-20T04:31:26.083Z,5.20
2019-01-20T04:36:33.438Z,3.80
2019-01-20T04:41:55.021Z,8.63
2019-01-20T04:46:58.612Z,9.97
2019-01-20T04:52:03.835Z,6.20
2019-01-20T04:57:13.200Z,19.17
2019-01-20T05:02:34.334Z,10.40
2019-01-20T05:07:37.074Z,8.60
2019-01-20T05:12:41.105Z,5.70
2019-01-20T05:17:55.094Z,6.40
2019-01-20T05:22:58.326Z,13.43
2019-01-20T05:28:19.187Z,20.27
2019-01-20T05:33:21.800Z,21.30
2019-01-20T05:38:42.931Z,17.83
2019-01-20T05:43:50.557Z,12.33
2019-01-20T05:48:54.727Z,6.67
2019-01-20T05:54:02.471Z,5.47
2019-01-20T05:59:07.029Z,4.97
2019-01-20T06:04:15.272Z,9.63
2019-01-20T06:09:27.154Z,16.70
2019-01-20T06:14:34.327Z,16.53
2019-01-20T06:19:46.624Z,12.40
2019-01-20T06:24:59.003Z,12.87
2019-01-20T06:30:10.367Z,6.90
2019-01-20T06:35:13.484Z,12.03
2019-01-20T06:40:34.445Z,9.50
2019-01-20T06:45:41.233Z,3.43
2019-01-20T06:51:03.216Z,7.30
2019-01-20T06:56:06.756Z,11.37
2019-01-20T07:01:10.891Z,34.67
2019-01-20T07:06:15.477Z,13.80
2019-01-20T07:11:19.227Z,12.03
2019-01-20T07:16:22.192Z,13.30
2019-01-20T07:21:43.408Z,10.27
2019-01-20T07:26:55.649Z,14.60
2019-01-20T07:31:58.977Z,35.37
2019-01-20T07:37:08.387Z,26.47
2019-01-20T07:42:27.429Z,41.03
2019-01-20T07:47:51.798Z,33.83
2019-01-20T07:53:13.672Z,38.23
2019-01-20T07:58:16.891Z,5.70
2019-01-20T08:03:19.786Z,20.90
2019-01-20T08:08:23.911Z,13.40
2019-01-20T08:13:45.011Z,6.30
2019-01-20T08:18:57.770Z,6.30
2019-01-20T08:24:03.082Z,4.63
2019-01-20T08:29:06.953Z,23.23
2019-01-20T08:34:28.047Z,17.57
2019-01-20T08:39:31.096Z,28.87
2019-01-20T08:44:52.125Z,15.00
2019-01-20T08:49:54.832Z,10.87
2019-01-20T08:55:15.876Z,23.17
2019-01-20T09:00:18.703Z,16.97
2019-01-20T09:05:40.177Z,25.43
2019-01-20T09:10:44.249Z,30.20
2019-01-20T09:16:05.732Z,40.27
2019-01-20T09:21:08.471Z,26.90
2019-01-20T09:26:30.789Z,34.70
2019-01-20T09:31:37.753Z,33.30
2019-01-20T09:36:58.734Z,38.00
2019-01-20T09:42:06.853Z,35.03
2019-01-20T09:47:10.353Z,36.87
2019-01-20T09:52:16.499Z,30.00
2019-01-20T09:57:21.768Z,14.53
2019-01-20T10:02:24.990Z,26.87
2019-01-20T10:07:32.471Z,28.70
2019-01-20T10:12:36.787Z,39.10
2019-01-20T10:17:42.756Z,33.40
2019-01-20T10:23:45.007Z,38.67
2019-01-20T10:28:48.228Z,40.37
2019-01-20T10:34:11.369Z,26.53
2019-01-20T10:39:14.449Z,23.57
2019-01-20T10:44:36.028Z,37.33
2019-01-20T10:49:40.084Z,40.57
2019-01-20T10:55:02.748Z,42.93
2019-01-20T11:00:13.249Z,19.80
2019-01-20T11:05:34.758Z,38.97
2019-01-20T11:10:44.703Z,44.37
2019-01-20T11:16:07.242Z,30.33
2019-01-20T11:21:23.965Z,37.70
2019-01-20T11:26:46.358Z,37.23
2019-01-20T11:31:49.058Z,26.40
2019-01-20T11:37:09.966Z,28.47
2019-01-20T11:42:12.756Z,30.47
2019-01-20T11:47:41.793Z,24.57
2019-01-20T11:52:44.001Z,27.13
2019-01-20T11:58:07.430Z,21.53
2019-01-20T12:03:11.095Z,19.20
2019-01-20T12:08:35.555Z,24.43
2019-01-20T12:13:38.658Z,25.60
2019-01-20T12:18:59.713Z,36.60
2019-01-20T12:24:02.523Z,6.80
2019-01-20T12:29:25.568Z,11.17
2019-01-20T12:34:29.168Z,2.70
2019-01-20T12:39:36.255Z,17.77
2019-01-20T12:44:39.995Z,28.80
2019-01-20T12:49:43.587Z,7.47
2019-01-20T12:54:51.547Z,35.57
2019-01-20T13:00:16.909Z,22.30
2019-01-20T13:05:29.846Z,6.00
2019-01-20T13:10:50.967Z,27.70
2019-01-20T13:15:56.192Z,24.60
2019-01-20T13:21:20.344Z,28.63
2019-01-20T13:26:32.951Z,11.63
2019-01-20T13:31:39.132Z,17.27
2019-01-20T13:37:00.011Z,32.73
2019-01-20T13:42:03.197Z,28.43
2019-01-20T13:47:06.806Z,26.63
2019-01-20T13:52:19.083Z,31.43
2019-01-20T13:57:22.845Z,7.20
2019-01-20T14:02:28.933Z,42.87
2019-01-20T14:07:49.797Z,30.03
2019-01-20T14:13:02.515Z,35.30
2019-01-20T14:18:07.535Z,36.63
2019-01-20T14:23:14.572Z,13.63
2019-01-20T14:28:19.207Z,40.03
2019-01-20T14:33:29.310Z,31.30
2019-01-20T14:38:32.969Z,31.93
2019-01-20T14:43:36.730Z,36.73
2019-01-20T14:48:48.649Z,20.30
2019-01-20T14:53:54.877Z,37.10
2019-01-20T14:58:58.562Z,10.00
2019-01-20T15:04:04.761Z,22.73
2019-01-20T15:09:25.518Z,35.20
2019-01-20T15:14:30.195Z,24.67
2019-01-20T15:19:51.487Z,30.60
2019-01-20T15:25:13.967Z,36.87
2019-01-20T15:30:21.951Z,24.00
2019-01-20T15:35:34.883Z,27.70
2019-01-20T15:40:48.071Z,16.53
2019-01-20T15:45:51.421Z,26.47
2019-01-20T15:50:59.541Z,15.67
2019-01-20T15:56:25.788Z,37.13
2019-01-20T16:01:31.409Z,33.83
2019-01-20T16:06:36.429Z,20.00
2019-01-20T16:11:58.601Z,26.70
2019-01-20T16:17:19.667Z,23.43
2019-01-20T16:22:22.740Z,30.07
2019-01-20T16:33:32.692Z,32.03
2019-01-20T16:38:53.952Z,33.30
2019-01-20T16:44:15.421Z,34.73
2019-01-20T16:49:27.340Z,36.37
2019-01-20T16:54:30.372Z,37.13
2019-01-20T16:59:51.610Z,41.60
2019-01-20T17:04:57.220Z,55.40
2019-01-20T17:16:36.502Z,41.37
2019-01-20T17:21:57.568Z,42.17
2019-01-20T17:27:04.678Z,65.03
2019-01-20T17:32:26.232Z,39.77
2019-01-20T17:37:29.827Z,43.87
2019-01-20T17:42:35.100Z,48.67
2019-01-20T17:47:41.568Z,40.90
2019-01-20T17:53:03.919Z,43.60
2019-01-20T17:58:12.290Z,36.47
2019-01-20T18:03:18.206Z,35.77
2019-01-20T18:08:30.602Z,38.00
2019-01-20T18:13:35.292Z,40.20
2019-01-20T18:18:48.477Z,31.53
2019-01-20T18:24:09.984Z,35.93
2019-01-20T18:29:31.296Z,33.03
2019-01-20T18:34:37.289Z,36.40
2019-01-20T18:39:42.592Z,34.03
2019-01-20T18:45:04.811Z,47.63
2019-01-20T18:50:28.097Z,35.73
2019-01-20T18:55:50.483Z,43.47
2019-01-20T19:01:02.038Z,30.07
2019-01-20T19:06:05.532Z,36.00
2019-01-20T19:11:10.049Z,41.03
2019-01-20T19:16:28.357Z,33.73
2019-01-20T19:21:43.570Z,30.43
2019-01-20T19:26:57.278Z,43.60
2019-01-20T19:32:03.806Z,32.80
2019-01-20T19:37:09.379Z,25.20
2019-01-20T19:42:17.714Z,36.03
2019-01-20T19:47:26.163Z,44.23
2019-01-20T19:52:49.078Z,36.23
2019-01-20T19:57:56.605Z,38.77
2019-01-20T20:03:02.705Z,24.80
2019-01-20T20:08:12.706Z,27.83
2019-01-20T20:13:25.652Z,42.70
2019-01-20T20:18:29.978Z,36.20
2019-01-20T20:23:36.812Z,27.90
2019-01-20T20:28:44.008Z,29.13
2019-01-20T20:33:50.884Z,47.50
2019-01-20T20:38:55.152Z,27.83
2019-01-20T20:44:18.608Z,33.53
2019-01-20T20:49:34.148Z,44.47
2019-01-20T20:54:41.219Z,39.40
2019-01-20T20:59:51.000Z,40.13
2019-01-20T21:04:59.795Z,40.50
2019-01-20T21:10:21.633Z,33.87
2019-01-20T21:15:24.928Z,34.50
2019-01-20T21:20:45.729Z,40.47
2019-01-20T21:25:48.850Z,37.10
2019-01-20T21:30:57.144Z,37.70
2019-01-20T21:36:10.250Z,49.00
2019-01-20T21:41:14.732Z,46.57
2019-01-20T21:46:23.915Z,55.37
2019-01-20T21:51:35.952Z,82.73
2019-01-20T21:56:39.640Z,67.77
2019-01-20T22:02:00.846Z,69.57
2019-01-20T22:07:03.630Z,89.63
2019-01-20T22:12:24.622Z,64.80
2019-01-20T22:17:28.111Z,59.53
2019-01-20T22:22:32.345Z,67.10
2019-01-20T22:27:53.548Z,60.03
2019-01-20T22:32:58.443Z,74.63
2019-01-20T22:38:11.781Z,77.30
2019-01-20T22:43:19.509Z,75.67
2019-01-20T22:48:31.775Z,83.30
2019-01-20T22:53:35.408Z,95.63
2019-01-20T22:58:43.064Z,83.50
2019-01-20T23:04:04.316Z,86.83
2019-01-20T23:09:11.932Z,86.23
2019-01-20T23:14:15.553Z,83.77
2019-01-20T23:19:19.555Z,80.53
2019-01-20T23:24:31.921Z,80.13
2019-01-20T23:29:45.277Z,74.40
2019-01-20T23:34:49.024Z,72.37
2019-01-20T23:40:10.108Z,79.53
2019-01-20T23:45:14.111Z,85.80
2019-01-20T23:50:35.437Z,78.47
2019-01-20T23:55:47.930Z,77.97
